Wetterdaten: Woche 18.02.08 - 24.02.08 (KW8)
Datum Zeit Temp. a Sch. Temp. a Son. Temp. a Bod. Feuchte a. Luftdruck Regen Wind Richtung Sonnenschein Helligkeit Taupunkt Windchill
18.02.2008 00:00 -6,8 C -6,2 C -6,9 C 72 % 1035 hPa 0,0 l/m 0,0 m/s (0 Bft) N 0,00 h 0 lux -11,0 C -6,8 C
18.02.2008 01:00 -7,3 C -6,8 C -7,4 C 74 % 1035 hPa 0,0 l/m 0,0 m/s (0 Bft) N 0,00 h 0 lux -11,2 C -7,3 C
18.02.2008 02:00 -7,6 C -7,3 C -7,8 C 76 % 1034 hPa 0,0 l/m 0,2 m/s (0 Bft) W 0,00 h 0 lux -11,1 C -7,6 C
18.02.2008 03:00 -8,1 C -7,7 C -8,1 C 77 % 1034 hPa 0,0 l/m 0,0 m/s (0 Bft) N 0,00 h 0 lux -11,3 C -8,1 C
18.02.2008 04:00 -8,5 C -8,1 C -8,5 C 79 % 1033 hPa 0,0 l/m 0,0 m/s (0 Bft) N 0,00 h 0 lux -11,5 C -8,5 C
18.02.2008 05:00 -8,9 C -8,6 C -8,8 C 80 % 1033 hPa 0,0 l/m 0,0 m/s (0 Bft) N 0,00 h 0 lux -11,7 C -8,9 C
18.02.2008 06:00 -9,0 C -8,8 C -9,0 C 81 % 1032 hPa 0,0 l/m 0,1 m/s (0 Bft) W 0,00 h 0 lux -11,7 C -9,0 C
18.02.2008 07:00 -9,4 C -9,1 C -9,3 C 82 % 1032 hPa 0,0 l/m 0,0 m/s (0 Bft) N 0,08 h 943 lux -12,0 C -9,4 C
18.02.2008 08:00 -8,5 C -8,8 C -8,4 C 82 % 1032 hPa 0,0 l/m 0,0 m/s (0 Bft) N 1,00 h 13,5 klux -11,0 C -8,5 C
18.02.2008 09:00 -6,2 C -3,6 C -6,5 C 80 % 1032 hPa 0,0 l/m 0,0 m/s (0 Bft) W 1,00 h 26,7 klux -9,2 C -6,2 C
18.02.2008 10:00 -1,1 C 6,7 C -2,7 C 67 % 1032 hPa 0,0 l/m 1,8 m/s (2 Bft) SW 1,00 h 35,9 klux -6,5 C -2,6 C
18.02.2008 11:00 4,0 C 11,4 C 2,2 C 41 % 1031 hPa 0,0 l/m 3,5 m/s (3 Bft) SW 1,00 h 41,4 klux -8,3 C -0,6 C
18.02.2008 12:00 7,0 C 15,3 C 5,1 C 21 % 1031 hPa 0,0 l/m 4,3 m/s (3 Bft) W 1,00 h 43,7 klux -13,8 C 1,5 C
18.02.2008 13:00 8,5 C 14,6 C 5,6 C 21 % 1031 hPa 0,0 l/m 4,3 m/s (3 Bft) W 1,00 h 42,2 klux -12,4 C 3,2 C
18.02.2008 14:00 9,4 C 17,2 C 6,3 C 22 % 1030 hPa 0,0 l/m 5,0 m/s (3 Bft) W-SW 1,00 h 37,3 klux -11,1 C 3,2 C
18.02.2008 15:00 9,6 C 17,6 C 6,3 C 22 % 1029 hPa 0,0 l/m 4,2 m/s (3 Bft) W-SW 1,00 h 29,7 klux -10,8 C 4,7 C
18.02.2008 16:00 9,0 C 11,0 C 5,5 C 25 % 1029 hPa 0,0 l/m 3,0 m/s (2 Bft) W-SW 0,98 h 18,4 klux -9,8 C 6,1 C
18.02.2008 17:00 6,9 C 8,5 C 3,3 C 31 % 1029 hPa 0,0 l/m 1,7 m/s (2 Bft) SW 0,68 h 4,43 klux -9,1 C 6,3 C
18.02.2008 18:00 3,5 C 5,0 C 0,2 C 38 % 1029 hPa 0,0 l/m 0,3 m/s (1 Bft) W 0,00 h 59 lux -9,7 C 3,5 C
18.02.2008 19:00 1,0 C 2,1 C -1,3 C 45 % 1029 hPa 0,0 l/m 0,3 m/s (0 Bft) W-SW 0,00 h 0 lux -9,6 C 1,0 C
18.02.2008 20:00 -0,9 C 0,3 C -2,4 C 53 % 1029 hPa 0,0 l/m 0,0 m/s (0 Bft) N 0,00 h 0 lux -9,2 C -0,9 C
18.02.2008 21:00 -0,7 C -0,3 C -2,4 C 56 % 1029 hPa 0,0 l/m 1,2 m/s (1 Bft) W-SW 0,00 h 0 lux -8,3 C -1,1 C
18.02.2008 22:00 -2,3 C -1,4 C -3,2 C 61 % 1029 hPa 0,0 l/m 0,0 m/s (0 Bft) N 0,00 h 0 lux -8,9 C -2,3 C
18.02.2008 23:00 -2,7 C -2,2 C -3,1 C 63 % 1028 hPa 0,0 l/m 0,4 m/s (1 Bft) W 0,00 h 0 lux -8,8 C -2,9 C
19.02.2008 00:00 -3,4 C -2,9 C -3,5 C 64 % 1028 hPa 0,0 l/m 0,0 m/s (0 Bft) N 0,00 h 0 lux -9,3 C -3,4 C
19.02.2008 01:00 -4,1 C -3,6 C -3,9 C 67 % 1028 hPa 0,0 l/m 0,0 m/s (0 Bft) N 0,00 h 0 lux -9,3 C -4,1 C
19.02.2008 02:00 -4,4 C -4,1 C -4,2 C 69 % 1028 hPa 0,0 l/m 0,0 m/s (0 Bft) N 0,00 h 0 lux -9,3 C -4,4 C
19.02.2008 03:00 -4,8 C -4,5 C -4,7 C 71 % 1027 hPa 0,0 l/m 0,0 m/s (0 Bft) N 0,00 h 0 lux -9,2 C -4,8 C
19.02.2008 04:00 -5,4 C -4,9 C -5,5 C 73 % 1027 hPa 0,0 l/m 0,0 m/s (0 Bft) N 0,00 h 0 lux -9,5 C -5,4 C
19.02.2008 05:00 -5,8 C -5,4 C -6,0 C 76 % 1027 hPa 0,0 l/m 0,0 m/s (0 Bft) N 0,00 h 0 lux -9,4 C -5,8 C
19.02.2008 06:00 -6,2 C -5,8 C -6,5 C 77 % 1027 hPa 0,0 l/m 0,0 m/s (0 Bft) N 0,00 h 0 lux -9,5 C -6,2 C
19.02.2008 07:00 -6,3 C -6,2 C -6,6 C 80 % 1026 hPa 0,0 l/m 0,0 m/s (0 Bft) O 0,00 h 625 lux -9,2 C -6,3 C
19.02.2008 08:00 -5,0 C -5,6 C -5,3 C 87 % 1027 hPa 0,0 l/m 0,8 m/s (1 Bft) O 0,00 h 4,81 klux -6,8 C -5,1 C
19.02.2008 09:00 -2,5 C -3,1 C -2,9 C 89 % 1027 hPa 0,0 l/m 1,0 m/s (1 Bft) SO 0,00 h 11,4 klux -4,1 C -2,8 C
19.02.2008 10:00 -1,2 C 0,0 C -1,4 C 87 % 1027 hPa 0,0 l/m 2,3 m/s (2 Bft) SO 0,00 h 20,8 klux -3,1 C -3,1 C
19.02.2008 11:00 0,5 C 6,1 C 0,7 C 84 % 1026 hPa 0,0 l/m 2,7 m/s (2 Bft) SO 0,90 h 40,9 klux -1,8 C -2,5 C
19.02.2008 12:00 2,1 C 12,5 C 2,2 C 80 % 1026 hPa 0,0 l/m 3,6 m/s (3 Bft) SO 1,02 h 43,7 klux -1,1 C -3,1 C
19.02.2008 13:00 3,7 C 11,9 C 2,5 C 75 % 1025 hPa 0,0 l/m 3,3 m/s (2 Bft) O-SO 1,00 h 42,6 klux -0,4 C -0,6 C
19.02.2008 14:00 4,6 C 15,5 C 2,8 C 71 % 1024 hPa 0,0 l/m 3,8 m/s (3 Bft) O-SO 1,00 h 38,3 klux -0,2 C -0,8 C
19.02.2008 15:00 4,2 C 14,9 C 2,4 C 73 % 1024 hPa 0,0 l/m 4,4 m/s (3 Bft) O-SO 1,00 h 30,7 klux -0,3 C -2,3 C
19.02.2008 16:00 2,6 C 6,5 C 1,3 C 79 % 1023 hPa 0,0 l/m 4,3 m/s (3 Bft) O-SO 1,00 h 19,0 klux -0,7 C -4,0 C
19.02.2008 17:00 0,5 C 2,4 C -0,4 C 87 % 1023 hPa 0,0 l/m 3,4 m/s (3 Bft) SO 0,42 h 3,78 klux -1,5 C -4,6 C
19.02.2008 18:00 -0,7 C 0,2 C -1,2 C 93 % 1023 hPa 0,0 l/m 2,7 m/s (2 Bft) O-SO 0,00 h 73 lux -1,8 C -4,0 C
19.02.2008 19:00 -0,7 C 0,1 C -1,1 C 94 % 1023 hPa 0,0 l/m 2,0 m/s (2 Bft) O-SO 0,00 h 0 lux -1,6 C -1,8 C
19.02.2008 20:00 -0,8 C 0,0 C -1,1 C 94 % 1023 hPa 0,0 l/m 1,5 m/s (1 Bft) O-SO 0,00 h 0 lux -1,6 C -1,4 C
19.02.2008 21:00 -0,8 C 0,0 C -1,1 C 94 % 1023 hPa 0,0 l/m 1,5 m/s (1 Bft) O-SO 0,00 h 0 lux -1,6 C -1,3 C
19.02.2008 22:00 -1,0 C -0,2 C -1,3 C 95 % 1023 hPa 0,0 l/m 1,5 m/s (1 Bft) O-SO 0,00 h 0 lux -1,7 C -2,0 C
19.02.2008 23:00 -1,0 C -0,2 C -1,3 C 95 % 1022 hPa 0,0 l/m 1,2 m/s (1 Bft) O-NO 0,00 h 0 lux -1,7 C -1,1 C
20.02.2008 00:00 -1,2 C -0,4 C -1,5 C 95 % 1022 hPa 0,0 l/m 0,8 m/s (1 Bft) O-SO 0,00 h 0 lux -1,9 C -1,3 C
20.02.2008 01:00 -1,4 C -0,7 C -1,8 C 94 % 1022 hPa 0,0 l/m 0,1 m/s (0 Bft) S 0,00 h 0 lux -2,3 C -1,4 C
20.02.2008 02:00 -1,7 C -1,0 C -2,0 C 93 % 1021 hPa 0,0 l/m 0,1 m/s (0 Bft) SO 0,00 h 0 lux -2,7 C -1,7 C
20.02.2008 03:00 -2,1 C -1,3 C -2,3 C 93 % 1021 hPa 0,0 l/m 0,1 m/s (0 Bft) S 0,00 h 0 lux -3,0 C -2,1 C
20.02.2008 04:00 -2,5 C -1,7 C -2,6 C 94 % 1020 hPa 0,0 l/m 0,0 m/s (0 Bft) SW 0,00 h 0 lux -3,3 C -2,5 C
20.02.2008 05:00 -3,0 C -2,1 C -3,1 C 94 % 1020 hPa 0,0 l/m 0,0 m/s (0 Bft) N 0,00 h 0 lux -3,8 C -3,0 C
20.02.2008 06:00 -3,6 C -2,6 C -3,5 C 94 % 1019 hPa 0,0 l/m 0,1 m/s (0 Bft) W-SW 0,00 h 0 lux -4,5 C -3,6 C
20.02.2008 07:00 -3,4 C -2,9 C -2,8 C 94 % 1019 hPa 0,0 l/m 0,1 m/s (0 Bft) S-SO 0,00 h 578 lux -4,3 C -3,4 C
20.02.2008 08:00 -2,6 C -2,2 C -2,1 C 91 % 1020 hPa 0,0 l/m 0,2 m/s (0 Bft) SO 0,00 h 2,35 klux -3,8 C -2,6 C
20.02.2008 09:00 -1,3 C -1,0 C -1,2 C 90 % 1020 hPa 0,0 l/m 0,3 m/s (0 Bft) O-SO 0,00 h 5,50 klux -2,7 C -1,3 C
20.02.2008 10:00 -0,1 C 0,3 C -0,3 C 89 % 1020 hPa 0,0 l/m 1,0 m/s (1 Bft) O-SO 0,00 h 11,8 klux -1,7 C -0,2 C
20.02.2008 11:00 1,4 C 2,0 C 0,7 C 86 % 1020 hPa 0,0 l/m 2,0 m/s (2 Bft) O-SO 0,00 h 15,1 klux -0,6 C 0,4 C
20.02.2008 12:00 2,4 C 3,1 C 1,4 C 85 % 1020 hPa 0,4 l/m 0,5 m/s (1 Bft) O-SO 0,00 h 12,1 klux 0,2 C 2,4 C
20.02.2008 13:00 2,5 C 3,0 C 1,5 C 87 % 1020 hPa 0,7 l/m 0,5 m/s (1 Bft) O-SO 0,00 h 9,1 klux 0,6 C 2,5 C
20.02.2008 14:00 3,0 C 3,2 C 1,8 C 88 % 1019 hPa 0,7 l/m 0,3 m/s (1 Bft) O-SO 0,00 h 6,78 klux 1,2 C 3,0 C
20.02.2008 15:00 2,7 C 3,1 C 1,7 C 91 % 1019 hPa 0,4 l/m 1,1 m/s (1 Bft) O-SO 0,00 h 5,49 klux 1,3 C 2,7 C
20.02.2008 16:00 2,3 C 2,9 C 1,4 C 92 % 1019 hPa 0,0 l/m 1,5 m/s (1 Bft) O-SO 0,00 h 1,43 klux 1,1 C 2,0 C
20.02.2008 17:00 1,6 C 2,2 C 0,8 C 93 % 1019 hPa 0,0 l/m 1,3 m/s (1 Bft) O-SO 0,00 h 213 lux 0,6 C 1,1 C
20.02.2008 18:00 1,3 C 1,8 C 0,6 C 93 % 1019 hPa 0,4 l/m 0,1 m/s (0 Bft) N 0,00 h 15 lux 0,3 C 1,3 C
20.02.2008 19:00 1,4 C 1,8 C 0,5 C 93 % 1019 hPa 0,0 l/m 0,0 m/s (0 Bft) N 0,00 h 0 lux 0,4 C 1,4 C
20.02.2008 20:00 1,5 C 1,8 C 0,5 C 93 % 1019 hPa 0,0 l/m 0,0 m/s (0 Bft) N 0,00 h 0 lux 0,5 C 1,5 C
20.02.2008 21:00 1,5 C 1,8 C 0,5 C 93 % 1020 hPa 0,0 l/m 0,0 m/s (0 Bft) N 0,00 h 0 lux 0,5 C 1,5 C
20.02.2008 22:00 1,5 C 1,8 C 0,5 C 94 % 1020 hPa 0,0 l/m 0,0 m/s (0 Bft) N 0,00 h 0 lux 0,6 C 1,5 C
20.02.2008 23:00 1,3 C 1,7 C 0,3 C 94 % 1020 hPa 0,0 l/m 0,0 m/s (0 Bft) N 0,00 h 0 lux 0,4 C 1,3 C
21.02.2008 00:00 1,6 C 1,9 C 0,4 C 94 % 1020 hPa 0,0 l/m 0,0 m/s (0 Bft) N 0,00 h 0 lux 0,7 C 1,6 C
21.02.2008 01:00 1,7 C 2,0 C 0,5 C 93 % 1020 hPa 0,0 l/m 0,0 m/s (0 Bft) N 0,00 h 0 lux 0,7 C 1,7 C
21.02.2008 02:00 1,7 C 2,0 C 0,5 C 94 % 1021 hPa 0,0 l/m 0,0 m/s (0 Bft) N 0,00 h 0 lux 0,8 C 1,7 C
21.02.2008 03:00 1,5 C 1,8 C 0,2 C 94 % 1021 hPa 0,0 l/m 0,0 m/s (0 Bft) N 0,00 h 0 lux 0,6 C 1,5 C
21.02.2008 04:00 0,9 C 1,3 C -0,3 C 94 % 1021 hPa 0,0 l/m 0,0 m/s (0 Bft) N 0,00 h 0 lux 0,0 C 0,9 C
21.02.2008 05:00 0,7 C 1,0 C -0,3 C 95 % 1021 hPa 0,0 l/m 0,0 m/s (0 Bft) N 0,00 h 0 lux -0,0 C 0,7 C
21.02.2008 06:00 1,3 C 1,4 C 0,1 C 96 % 1021 hPa 0,0 l/m 0,0 m/s (0 Bft) SW 0,00 h 0 lux 0,7 C 1,3 C
21.02.2008 07:00 1,7 C 1,8 C 0,3 C 95 % 1022 hPa 0,0 l/m 0,1 m/s (0 Bft) N 0,00 h 458 lux 1,0 C 1,7 C
21.02.2008 08:00 2,0 C 2,1 C 0,7 C 95 % 1022 hPa 0,0 l/m 0,1 m/s (0 Bft) W-NW 0,00 h 3,01 klux 1,3 C 2,0 C
21.02.2008 09:00 3,0 C 2,9 C 1,6 C 94 % 1022 hPa 0,0 l/m 0,0 m/s (0 Bft) N 0,00 h 5,14 klux 2,0 C 3,0 C
21.02.2008 10:00 3,8 C 3,8 C 2,2 C 93 % 1022 hPa 0,0 l/m 0,0 m/s (0 Bft) N 0,00 h 4,88 klux 2,7 C 3,8 C
21.02.2008 11:00 4,9 C 4,8 C 3,4 C 91 % 1023 hPa 0,0 l/m 0,4 m/s (1 Bft) O 0,00 h 11,3 klux 3,6 C 4,9 C
21.02.2008 12:00 6,7 C 6,6 C 5,0 C 88 % 1022 hPa 0,0 l/m 1,7 m/s (2 Bft) SO 0,00 h 15,9 klux 4,9 C 6,2 C
21.02.2008 13:00 8,1 C 7,7 C 6,0 C 78 % 1022 hPa 0,0 l/m 5,5 m/s (4 Bft) W-SW 0,00 h 14,9 klux 4,4 C 0,9 C
21.02.2008 14:00 8,6 C 8,8 C 6,6 C 71 % 1022 hPa 0,0 l/m 6,1 m/s (4 Bft) W-SW 0,00 h 19,5 klux 3,8 C 0,9 C
21.02.2008 15:00 8,7 C 9,1 C 6,7 C 73 % 1022 hPa 0,0 l/m 5,8 m/s (4 Bft) W-SW 0,00 h 10,6 klux 4,2 C 1,4 C
21.02.2008 16:00 8,8 C 8,8 C 7,1 C 76 % 1022 hPa 0,0 l/m 4,1 m/s (3 Bft) W-SW 0,00 h 7,02 klux 4,7 C 3,9 C
21.02.2008 17:00 8,2 C 8,2 C 6,3 C 80 % 1022 hPa 0,0 l/m 3,5 m/s (3 Bft) W-SW 0,00 h 346 lux 4,9 C 4,3 C
21.02.2008 18:00 7,9 C 7,9 C 6,1 C 79 % 1022 hPa 0,0 l/m 3,6 m/s (3 Bft) W-SW 0,00 h 20 lux 4,5 C 3,5 C
21.02.2008 19:00 7,6 C 7,6 C 5,9 C 80 % 1022 hPa 0,0 l/m 4,2 m/s (3 Bft) W-SW 0,00 h 0 lux 4,4 C 2,3 C
21.02.2008 20:00 7,4 C 7,4 C 5,8 C 80 % 1022 hPa 0,0 l/m 5,3 m/s (3 Bft) W 0,00 h 0 lux 4,2 C 0,3 C
21.02.2008 21:00 7,1 C 7,2 C 5,6 C 81 % 1022 hPa 0,0 l/m 5,4 m/s (3 Bft) W 0,00 h 0 lux 4,1 C -0,1 C
21.02.2008 22:00 6,8 C 6,9 C 5,3 C 82 % 1023 hPa 0,0 l/m 4,8 m/s (3 Bft) W 0,00 h 0 lux 4,0 C 0,3 C
21.02.2008 23:00 6,5 C 6,6 C 4,9 C 86 % 1022 hPa 0,4 l/m 5,2 m/s (3 Bft) W 0,00 h 0 lux 4,2 C -0,8 C
22.02.2008 00:00 6,3 C 6,3 C 4,6 C 88 % 1022 hPa 0,0 l/m 4,1 m/s (3 Bft) W 0,00 h 0 lux 4,4 C 0,7 C
22.02.2008 01:00 6,4 C 6,2 C 4,8 C 88 % 1022 hPa 0,0 l/m 4,2 m/s (3 Bft) W-SW 0,00 h 0 lux 4,5 C 0,8 C
22.02.2008 02:00 6,5 C 6,4 C 4,9 C 87 % 1022 hPa 0,0 l/m 4,1 m/s (3 Bft) W-SW 0,00 h 0 lux 4,6 C 1,2 C
22.02.2008 03:00 6,6 C 6,5 C 5,0 C 88 % 1022 hPa 0,0 l/m 4,1 m/s (3 Bft) W-SW 0,00 h 0 lux 4,7 C 1,2 C
22.02.2008 04:00 6,5 C 6,5 C 4,9 C 88 % 1022 hPa 0,0 l/m 3,9 m/s (3 Bft) W-SW 0,00 h 0 lux 4,6 C 1,4 C
22.02.2008 05:00 6,2 C 6,1 C 4,5 C 89 % 1022 hPa 0,0 l/m 3,8 m/s (3 Bft) W-SW 0,00 h 0 lux 4,4 C 1,2 C
22.02.2008 06:00 6,9 C 6,7 C 5,3 C 87 % 1022 hPa 0,0 l/m 3,9 m/s (3 Bft) W-SW 0,00 h 0 lux 4,9 C 1,9 C
22.02.2008 07:00 7,5 C 7,2 C 5,7 C 85 % 1022 hPa 0,0 l/m 4,0 m/s (3 Bft) W-SW 0,00 h 150 lux 5,1 C 2,3 C
22.02.2008 08:00 7,9 C 7,6 C 6,2 C 82 % 1022 hPa 0,0 l/m 4,9 m/s (3 Bft) W-SW 0,00 h 1,40 klux 5,0 C 1,5 C
22.02.2008 09:00 8,3 C 8,1 C 6,8 C 79 % 1023 hPa 0,0 l/m 7,1 m/s (4 Bft) W-SW 0,00 h 4,14 klux 4,8 C -0,6 C
22.02.2008 10:00 8,8 C 8,6 C 7,5 C 77 % 1023 hPa 0,0 l/m 5,9 m/s (4 Bft) W 0,00 h 8,44 klux 5,0 C 1,4 C
22.02.2008 11:00 9,1 C 9,0 C 8,0 C 76 % 1023 hPa 0,0 l/m 6,4 m/s (4 Bft) W 0,00 h 9,2 klux 5,1 C 1,3 C
22.02.2008 12:00 9,0 C 9,0 C 7,9 C 76 % 1023 hPa 0,0 l/m 5,8 m/s (4 Bft) W-SW 0,00 h 7,64 klux 4,9 C 1,7 C
22.02.2008 13:00 9,0 C 9,1 C 8,0 C 76 % 1022 hPa 0,0 l/m 6,0 m/s (4 Bft) W-SW 0,00 h 7,82 klux 5,0 C 1,6 C
22.02.2008 14:00 9,5 C 9,4 C 8,5 C 74 % 1022 hPa 0,0 l/m 6,8 m/s (4 Bft) W-SW 0,00 h 11,3 klux 5,1 C 1,3 C
22.02.2008 15:00 9,2 C 9,2 C 8,2 C 76 % 1021 hPa 0,0 l/m 7,1 m/s (4 Bft) W-SW 0,00 h 6,24 klux 5,2 C 0,6 C
22.02.2008 16:00 9,1 C 9,0 C 7,9 C 76 % 1021 hPa 0,0 l/m 7,2 m/s (4 Bft) W-SW 0,00 h 3,96 klux 5,1 C 0,5 C
22.02.2008 17:00 8,6 C 8,6 C 7,3 C 78 % 1021 hPa 0,0 l/m 6,9 m/s (4 Bft) W 0,00 h 665 lux 4,9 C -0,1 C
22.02.2008 18:00 8,3 C 8,3 C 7,1 C 78 % 1022 hPa 0,0 l/m 6,3 m/s (4 Bft) W 0,00 h 17 lux 4,7 C 0,3 C
22.02.2008 19:00 8,3 C 8,3 C 7,0 C 79 % 1022 hPa 0,0 l/m 5,9 m/s (4 Bft) W 0,00 h 0 lux 4,8 C 0,7 C
22.02.2008 20:00 8,2 C 8,2 C 6,9 C 79 % 1023 hPa 0,0 l/m 5,1 m/s (3 Bft) W 0,00 h 0 lux 4,9 C 1,7 C
22.02.2008 21:00 8,0 C 8,1 C 6,6 C 80 % 1021 hPa 0,0 l/m 5,3 m/s (3 Bft) W 0,00 h 0 lux 4,7 C 1,3 C
22.02.2008 22:00 8,3 C 8,2 C 7,0 C 79 % 1023 hPa 0,0 l/m 6,7 m/s (4 Bft) W 0,00 h 0 lux 4,9 C -0,1 C
22.02.2008 23:00 8,4 C 8,3 C 7,0 C 81 % 1024 hPa 0,0 l/m 6,7 m/s (4 Bft) W 0,00 h 0 lux 5,4 C 0,0 C
23.02.2008 00:00 9,0 C 8,7 C 7,6 C 78 % 1023 hPa 0,0 l/m 7,9 m/s (4 Bft) W 0,00 h 0 lux 5,4 C -0,2 C
23.02.2008 01:00 9,1 C 9,0 C 7,7 C 77 % 1024 hPa 0,0 l/m 7,6 m/s (4 Bft) W 0,00 h 0 lux 5,2 C 0,2 C
23.02.2008 02:00 9,0 C 8,9 C 7,6 C 77 % 1024 hPa 0,0 l/m 5,9 m/s (4 Bft) W 0,00 h 0 lux 5,1 C 1,7 C
23.02.2008 03:00 9,0 C 9,0 C 7,6 C 77 % 1024 hPa 0,0 l/m 6,3 m/s (4 Bft) W 0,00 h 0 lux 5,2 C 1,3 C
23.02.2008 04:00 8,9 C 8,9 C 7,4 C 78 % 1024 hPa 0,0 l/m 6,7 m/s (4 Bft) W 0,00 h 0 lux 5,2 C 0,8 C
23.02.2008 05:00 8,3 C 8,4 C 6,8 C 81 % 1025 hPa 0,0 l/m 5,2 m/s (3 Bft) W 0,00 h 0 lux 5,2 C 1,7 C
23.02.2008 06:00 7,7 C 7,8 C 6,1 C 78 % 1025 hPa 0,0 l/m 4,5 m/s (3 Bft) W 0,00 h 0 lux 4,2 C 2,1 C
23.02.2008 07:00 7,3 C 7,3 C 5,8 C 77 % 1026 hPa 0,0 l/m 2,9 m/s (2 Bft) W 0,00 h 692 lux 3,6 C 4,6 C
23.02.2008 08:00 7,7 C 7,4 C 6,2 C 75 % 1026 hPa 0,0 l/m 3,3 m/s (2 Bft) W 0,00 h 7,44 klux 3,6 C 3,9 C
23.02.2008 09:00 8,3 C 8,1 C 6,8 C 71 % 1027 hPa 0,0 l/m 3,8 m/s (3 Bft) W 0,00 h 14,0 klux 3,3 C 4,0 C
23.02.2008 10:00 9,1 C 9,1 C 8,1 C 70 % 1027 hPa 0,0 l/m 5,0 m/s (3 Bft) W 0,00 h 14,5 klux 3,8 C 2,9 C
23.02.2008 11:00 10,6 C 11,6 C 10,2 C 65 % 1027 hPa 0,0 l/m 6,0 m/s (4 Bft) W 0,58 h 37,5 klux 4,4 C 3,8 C
23.02.2008 12:00 11,4 C 14,3 C 11,4 C 62 % 1027 hPa 0,0 l/m 6,4 m/s (4 Bft) W-SW 0,75 h 46,2 klux 4,3 C 4,3 C
23.02.2008 13:00 11,6 C 13,0 C 11,4 C 60 % 1027 hPa 0,0 l/m 5,6 m/s (4 Bft) W 0,17 h 23,8 klux 4,1 C 5,3 C
23.02.2008 14:00 12,1 C 14,6 C 11,1 C 58 % 1027 hPa 0,0 l/m 5,4 m/s (3 Bft) W 0,58 h 31,9 klux 4,2 C 6,1 C
23.02.2008 15:00 12,3 C 17,5 C 10,6 C 57 % 1026 hPa 0,0 l/m 5,0 m/s (3 Bft) W-SW 0,83 h 29,5 klux 4,0 C 7,0 C
23.02.2008 16:00 11,9 C 15,1 C 10,0 C 60 % 1026 hPa 0,0 l/m 4,3 m/s (3 Bft) W-SW 0,33 h 13,7 klux 4,3 C 7,3 C
23.02.2008 17:00 10,7 C 11,6 C 8,8 C 64 % 1025 hPa 0,0 l/m 1,7 m/s (2 Bft) W-SW 0,00 h 2,65 klux 4,2 C 9,3 C
23.02.2008 18:00 8,2 C 9,1 C 6,0 C 70 % 1025 hPa 0,0 l/m 0,3 m/s (1 Bft) W 0,00 h 89 lux 3,1 C 8,2 C
23.02.2008 19:00 6,1 C 6,9 C 4,6 C 77 % 1025 hPa 0,0 l/m 0,2 m/s (0 Bft) O 0,00 h 0 lux 2,3 C 6,1 C
23.02.2008 20:00 4,9 C 5,6 C 3,8 C 81 % 1025 hPa 0,0 l/m 0,1 m/s (0 Bft) S-SW 0,00 h 0 lux 1,9 C 4,9 C
23.02.2008 21:00 3,7 C 4,6 C 2,8 C 84 % 1025 hPa 0,0 l/m 0,0 m/s (0 Bft) N 0,00 h 0 lux 1,2 C 3,7 C
23.02.2008 22:00 2,9 C 3,6 C 2,1 C 86 % 1025 hPa 0,0 l/m 0,0 m/s (0 Bft) N 0,00 h 0 lux 0,8 C 2,9 C
23.02.2008 23:00 2,2 C 2,9 C 1,5 C 87 % 1024 hPa 0,0 l/m 0,0 m/s (0 Bft) SW 0,00 h 0 lux 0,3 C 2,2 C
24.02.2008 00:00 1,6 C 2,2 C 0,9 C 88 % 1024 hPa 0,0 l/m 0,0 m/s (0 Bft) N 0,00 h 0 lux -0,2 C 1,6 C
24.02.2008 01:00 1,0 C 1,5 C 0,4 C 89 % 1023 hPa 0,0 l/m 0,0 m/s (0 Bft) N 0,00 h 0 lux -0,6 C 1,0 C
24.02.2008 02:00 0,5 C 1,0 C 0,0 C 90 % 1023 hPa 0,0 l/m 0,0 m/s (0 Bft) N 0,00 h 0 lux -1,0 C 0,5 C
24.02.2008 03:00 0,0 C 0,6 C -0,4 C 90 % 1022 hPa 0,0 l/m 0,0 m/s (0 Bft) N 0,00 h 0 lux -1,4 C 0,0 C
24.02.2008 04:00 -0,5 C 0,1 C -0,8 C 91 % 1022 hPa 0,0 l/m 0,0 m/s (0 Bft) N 0,00 h 0 lux -1,8 C -0,5 C
24.02.2008 05:00 -0,5 C 0,1 C -0,6 C 93 % 1022 hPa 0,0 l/m 0,0 m/s (0 Bft) N 0,00 h 0 lux -1,6 C -0,5 C
24.02.2008 06:00 -0,9 C -0,1 C -0,9 C 93 % 1022 hPa 0,0 l/m 0,0 m/s (0 Bft) N 0,00 h 0 lux -2,0 C -0,9 C
24.02.2008 07:00 -1,0 C -0,3 C -0,8 C 93 % 1022 hPa 0,0 l/m 0,0 m/s (0 Bft) N 0,00 h 665 lux -1,9 C -1,0 C
24.02.2008 08:00 -0,5 C 0,0 C -0,3 C 94 % 1021 hPa 0,0 l/m 0,0 m/s (0 Bft) N 0,00 h 7,00 klux -1,4 C -0,5 C
24.02.2008 09:00 0,7 C 1,3 C 1,0 C 93 % 1021 hPa 0,0 l/m 0,8 m/s (1 Bft) SW 0,17 h 18,9 klux -0,3 C 0,6 C
24.02.2008 10:00 3,3 C 5,9 C 3,6 C 92 % 1021 hPa 0,0 l/m 1,3 m/s (1 Bft) W-SW 0,25 h 28,2 klux 2,1 C 2,3 C
24.02.2008 11:00 6,7 C 7,3 C 6,7 C 85 % 1021 hPa 0,0 l/m 1,9 m/s (2 Bft) W-SW 0,00 h 21,8 klux 4,4 C 5,9 C
24.02.2008 12:00 9,3 C 13,6 C 9,2 C 78 % 1020 hPa 0,0 l/m 1,5 m/s (1 Bft) SW 0,83 h 42,5 klux 5,7 C 8,9 C
24.02.2008 13:00 10,6 C 15,3 C 9,6 C 74 % 1019 hPa 0,0 l/m 1,7 m/s (2 Bft) SW 0,42 h 35,1 klux 6,1 C 10,0 C
24.02.2008 14:00 12,8 C 20,5 C 10,4 C 66 % 1019 hPa 0,0 l/m 3,7 m/s (3 Bft) W-SW 1,00 h 39,1 klux 6,5 C 9,5 C
24.02.2008 15:00 13,8 C 20,4 C 11,1 C 60 % 1018 hPa 0,0 l/m 5,4 m/s (3 Bft) W-SW 1,00 h 31,4 klux 6,3 C 8,5 C
24.02.2008 16:00 13,4 C 18,0 C 10,7 C 61 % 1018 hPa 0,0 l/m 5,5 m/s (3 Bft) W-SW 1,00 h 19,8 klux 6,0 C 7,8 C
24.02.2008 17:00 12,3 C 13,4 C 9,8 C 63 % 1017 hPa 0,0 l/m 4,7 m/s (3 Bft) W 0,83 h 5,88 klux 5,5 C 7,4 C
24.02.2008 18:00 10,6 C 10,9 C 8,5 C 67 % 1018 hPa 0,0 l/m 4,6 m/s (3 Bft) W 0,00 h 86 lux 4,7 C 5,4 C
24.02.2008 19:00 9,3 C 9,3 C 7,3 C 73 % 1018 hPa 0,0 l/m 4,0 m/s (3 Bft) W 0,00 h 0 lux 4,7 C 4,8 C
24.02.2008 20:00 7,5 C 7,9 C 5,5 C 77 % 1018 hPa 0,0 l/m 1,5 m/s (1 Bft) W 0,00 h 0 lux 3,8 C 6,2 C
24.02.2008 21:00 5,0 C 5,7 C 3,4 C 84 % 1018 hPa 0,0 l/m 0,3 m/s (1 Bft) O 0,00 h 0 lux 2,5 C 5,0 C
24.02.2008 22:00 3,6 C 4,2 C 2,5 C 87 % 1018 hPa 0,0 l/m 0,1 m/s (0 Bft) N 0,00 h 0 lux 1,7 C 3,6 C
24.02.2008 23:00 2,5 C 3,1 C 1,6 C 90 % 1018 hPa 0,0 l/m 0,2 m/s (0 Bft) O 0,00 h 0 lux 1,0 C 2,5 C
Min-Datum _ 18.02.08 18.02.08 18.02.08 18.02.08 24.02.08 - 18.02.08 - - - 18.02.08 18.02.08
_ Min-Zeit 07:25 07:30 07:35 12:25 16:25 - 00:00 - - - 12:25 07:25
Minimum _ -9,5 C -9,2 C -9,5 C 20 % 1017 hPa - 0,0 m/s (0 Bft) - - - -14,3 C -9,5 C
Max-Datum _ 24.02.08 24.02.08 23.02.08 21.02.08 18.02.08 20.02.08 23.02.08 - 18.02.08 23.02.08 24.02.08 24.02.08
_ Max-Zeit 15:15 14:35 11:50 05:55 00:00 13:05 04:20 - 17:00 12:40 14:10 17:05
Maximum _ 13,9 C 21,7 C 12,1 C 96 % 1035 hPa 0,7 l/m 11,5 m/s
W (6 Bft)
- 0,10 h 56,5 klux 6,7 C 11,7 C
Durchschnitt _ 3,4 C 4,5 C 2,3 C 79 % 1024 hPa #2,9 l/m 2,4 m/s (2 Bft) W #24:50 h 7,43 klux -0,3 C 0,7 C